Time;durP1;ratioP1;P1;durP2;ratioP2;P2;SDS_P1;SDS_P2;PMS_P1;PMS_P2;Temp;Humidity;BMP_temperature;BMP_pressure;BME280_temperature;BME280_humidity;BME280_pressure;Samples;Min_cycle;Max_cycle;Signal;HPM_P1;HPM_P2
2021/08/29 05:03:31;;;;;;;3.03;2.60;;;;;;;14.46;100.00;98668.97;4986736;22;103354;-59
2021/08/29 05:05:59;;;;;;;3.90;3.30;;;;;;;14.44;100.00;98670.09;4982272;28;104297;-58
2021/08/29 05:08:30;;;;;;;3.30;2.83;;;;;;;14.45;100.00;98669.97;4991223;28;102851;-59
2021/08/29 05:10:58;;;;;;;3.23;2.93;;;;;;;14.46;100.00;98676.97;4991829;28;103037;-60
2021/08/29 05:13:26;;;;;;;3.13;2.83;;;;;;;14.46;100.00;98676.97;5008674;28;102788;-58
2021/08/29 05:15:56;;;;;;;3.90;3.27;;;;;;;14.41;100.00;98673.88;4997605;28;102723;-59
2021/08/29 05:18:24;;;;;;;3.03;2.73;;;;;;;14.39;100.00;98669.66;4997278;28;103512;-59
2021/08/29 05:21:11;;;;;;;3.20;2.90;;;;;;;14.28;100.00;98657.31;4993065;28;103361;-59
2021/08/29 05:23:58;;;;;;;3.87;3.47;;;;;;;14.19;100.00;98666.06;5013245;28;102838;-58
2021/08/29 05:26:46;;;;;;;3.47;3.17;;;;;;;14.13;100.00;98669.25;5014499;28;102702;-58
2021/08/29 05:29:15;;;;;;;2.63;2.43;;;;;;;14.12;100.00;98672.06;4991828;28;103480;-58
2021/08/29 05:31:44;;;;;;;2.50;2.10;;;;;;;14.11;100.00;98668.56;4992316;28;103490;-59
2021/08/29 05:34:16;;;;;;;3.30;3.00;;;;;;;14.09;100.00;98672.31;4995225;28;102768;-59
2021/08/29 05:36:46;;;;;;;2.90;2.70;;;;;;;14.10;100.00;98674.84;4993649;28;103197;-59
2021/08/29 05:39:16;;;;;;;2.73;2.53;;;;;;;14.13;100.00;98673.72;4994691;28;104493;-59
2021/08/29 05:41:45;;;;;;;2.73;2.53;;;;;;;14.19;100.00;98679.34;4995062;28;103290;-59
2021/08/29 05:44:18;;;;;;;3.40;2.70;;;;;;;14.22;100.00;98673.78;5016033;28;103010;-59
2021/08/29 05:46:46;;;;;;;3.63;3.13;;;;;;;14.14;100.00;98670.94;4996442;28;104298;-58
2021/08/29 05:49:14;;;;;;;3.20;3.00;;;;;;;14.11;100.00;98670.38;5014844;28;103299;-59
2021/08/29 05:51:42;;;;;;;3.27;2.97;;;;;;;14.20;100.00;98674.88;4995053;28;105990;-59
2021/08/29 05:54:12;;;;;;;2.70;2.50;;;;;;;14.24;100.00;98682.44;5014419;28;102677;-59
2021/08/29 05:56:40;;;;;;;2.37;2.17;;;;;;;14.25;100.00;98684.13;5014584;28;102814;-60
2021/08/29 05:59:09;;;;;;;2.93;2.73;;;;;;;14.31;100.00;98683.59;4992843;28;105473;-58
2021/08/29 06:01:39;;;;;;;2.53;2.33;;;;;;;14.32;100.00;98682.66;4991481;28;103253;-65
2021/08/29 06:04:08;;;;;;;3.20;2.90;;;;;;;14.28;100.00;98678.56;5005921;28;102725;-66
2021/08/29 06:06:48;;;;;;;4.13;3.83;;;;;;;14.27;100.00;98673.34;4986440;28;102906;-65
2021/08/29 06:09:18;;;;;;;2.97;2.77;;;;;;;14.33;100.00;98676.38;4988078;28;104342;-59
2021/08/29 06:11:46;;;;;;;4.00;3.60;;;;;;;14.28;100.00;98665.28;4990576;28;103210;-59
2021/08/29 06:14:14;;;;;;;3.40;3.10;;;;;;;14.28;100.00;98667.94;4993966;28;103060;-59
2021/08/29 06:16:44;;;;;;;2.97;2.67;;;;;;;14.30;100.00;98671.28;4990239;28;104308;-60
2021/08/29 06:19:22;;;;;;;3.63;2.70;;;;;;;14.27;100.00;98666.22;4988750;28;103944;-57
2021/08/29 06:21:50;;;;;;;2.40;2.20;;;;;;;14.29;100.00;98664.28;5007988;28;103156;-59
2021/08/29 06:24:19;;;;;;;2.93;2.73;;;;;;;14.34;100.00;98669.25;4991851;28;102817;-59
2021/08/29 06:27:06;;;;;;;2.80;2.60;;;;;;;14.25;100.00;98670.00;5009460;28;104019;-59
2021/08/29 06:29:52;;;;;;;2.73;2.30;;;;;;;14.32;100.00;98672.00;5007660;28;104385;-58
2021/08/29 06:32:39;;;;;;;2.43;2.23;;;;;;;14.22;100.00;98671.13;5006905;28;103318;-65
2021/08/29 06:35:11;;;;;;;2.50;2.10;;;;;;;14.34;100.00;98671.91;5008239;28;103011;-64
2021/08/29 06:37:58;;;;;;;2.87;2.67;;;;;;;14.36;100.00;98664.63;5010395;28;102727;-58
2021/08/29 06:40:27;;;;;;;2.77;2.47;;;;;;;14.38;100.00;98658.19;4997313;28;104313;-58
2021/08/29 06:42:56;;;;;;;2.67;2.47;;;;;;;14.36;100.00;98656.66;5010811;28;103368;-58
2021/08/29 06:45:59;;;;;;;2.57;2.30;;;;;;;14.32;100.00;98663.19;4974851;28;102779;-58
2021/08/29 06:48:46;;;;;;;2.37;2.10;;;;;;;14.40;100.00;98656.22;5010285;28;103026;-59
2021/08/29 06:51:49;;;;;;;1.93;1.83;;;;;;;14.36;100.00;98654.00;5006869;28;104759;-58
2021/08/29 06:54:35;;;;;;;1.93;1.83;;;;;;;14.33;100.00;98659.56;5016010;28;103175;-58
2021/08/29 06:57:25;;;;;;;1.90;1.80;;;;;;;14.38;100.00;98660.84;5010639;28;102813;-59
2021/08/29 06:59:54;;;;;;;2.73;1.70;;;;;;;14.34;100.00;98661.25;5006114;28;102775;-58
2021/08/29 07:02:22;;;;;;;1.87;1.77;;;;;;;14.41;100.00;98657.91;4993405;28;102995;-58
2021/08/29 07:04:50;;;;;;;1.60;1.50;;;;;;;14.35;100.00;98653.16;4988547;28;103552;-58
2021/08/29 07:07:19;;;;;;;1.67;1.57;;;;;;;14.46;100.00;98657.50;4989758;28;102929;-59
2021/08/29 07:10:06;;;;;;;1.70;1.60;;;;;;;14.35;100.00;98661.13;4991261;28;102808;-58
2021/08/29 07:12:52;;;;;;;1.73;1.30;;;;;;;14.38;100.00;98655.53;4995341;28;103302;-58
2021/08/29 07:15:27;;;;;;;1.50;1.40;;;;;;;14.17;100.00;98649.44;4997510;28;105240;-58
2021/08/29 07:17:55;;;;;;;1.43;1.33;;;;;;;14.22;100.00;98641.91;4991616;28;102953;-58
2021/08/29 07:21:01;;;;;;;1.23;1.13;;;;;;;14.26;100.00;98645.94;5006115;28;102930;-59
2021/08/29 07:23:58;;;;;;;1.50;1.23;;;;;;;14.02;100.00;98639.28;4958210;28;103209;-59
2021/08/29 07:26:50;;;;;;;1.27;1.17;;;;;;;14.05;100.00;98647.84;4971930;28;103192;-59
2021/08/29 07:29:51;;;;;;;1.60;1.30;;;;;;;14.21;100.00;98645.50;5010598;28;102870;-67
2021/08/29 07:32:42;;;;;;;0.73;0.73;;;;;;;14.25;100.00;98646.94;4999419;28;104470;-67
2021/08/29 07:35:10;;;;;;;1.27;1.17;;;;;;;14.27;100.00;98639.66;4990950;28;104191;-68
2021/08/29 07:37:58;;;;;;;1.10;1.00;;;;;;;14.28;100.00;98651.13;5007440;28;104120;-68
2021/08/29 07:40:27;;;;;;;1.20;1.10;;;;;;;14.21;100.00;98645.50;4993333;28;102744;-68
2021/08/29 07:42:56;;;;;;;1.90;1.10;;;;;;;14.39;100.00;98653.72;4994320;28;104129;-68
2021/08/29 07:45:26;;;;;;;1.27;1.17;;;;;;;14.39;100.00;98645.75;4993795;28;104553;-68
2021/08/29 07:47:55;;;;;;;1.73;1.30;;;;;;;14.39;100.00;98653.72;4991813;28;105326;-68
2021/08/29 07:50:25;;;;;;;1.93;1.83;;;;;;;14.46;100.00;98650.38;4985974;28;102834;-67
2021/08/29 07:52:53;;;;;;;1.67;1.57;;;;;;;14.61;100.00;98650.84;4992622;28;103921;-67
2021/08/29 07:55:40;;;;;;;1.50;1.40;;;;;;;14.69;100.00;98656.31;5009774;28;103228;-68
2021/08/29 07:58:37;;;;;;;1.80;1.70;;;;;;;14.63;100.00;98656.00;4992397;28;103092;-68
2021/08/29 08:01:11;;;;;;;1.50;1.10;;;;;;;14.41;100.00;98657.91;4988339;28;102692;-68
2021/08/29 08:03:39;;;;;;;0.90;0.90;;;;;;;14.61;100.00;98656.16;4997827;28;102828;-66
2021/08/29 08:06:10;;;;;;;1.50;1.13;;;;;;;14.55;100.00;98654.03;5005640;28;103018;-67
2021/08/29 08:08:57;;;;;;;1.37;1.27;;;;;;;14.43;100.00;98655.97;5007204;28;103143;-68
2021/08/29 08:11:28;;;;;;;0.80;0.80;;;;;;;14.65;100.00;98646.94;5014438;28;102865;-68
2021/08/29 08:13:56;;;;;;;1.10;0.90;;;;;;;14.73;100.00;98651.56;4992774;28;102823;-68
2021/08/29 08:16:25;;;;;;;1.20;1.10;;;;;;;14.63;100.00;98651.53;4992962;28;104115;-68
2021/08/29 08:18:55;;;;;;;1.27;1.20;;;;;;;14.56;100.00;98652.22;4993480;28;105071;-68
2021/08/29 08:21:24;;;;;;;1.20;1.10;;;;;;;14.71;100.00;98656.19;4986278;28;102633;-68
2021/08/29 08:24:08;;;;;;;0.80;0.80;;;;;;;14.88;100.00;98655.47;4994227;28;103790;-66
2021/08/29 08:26:42;;;;;;;1.57;1.30;;;;;;;14.98;100.00;98653.69;5010909;28;103268;-68
2021/08/29 08:29:29;;;;;;;1.40;1.30;;;;;;;14.77;100.00;98647.63;5009806;28;103135;-59
2021/08/29 08:32:17;;;;;;;1.33;0.93;;;;;;;14.60;100.00;98656.28;5003726;28;102700;-67
2021/08/29 08:35:21;;;;;;;1.00;1.00;;;;;;;14.72;100.00;98656.03;4990925;28;103970;-58
2021/08/29 08:38:04;;;;;;;0.80;0.70;;;;;;;14.76;100.00;98648.63;4993521;28;103258;-67
2021/08/29 08:40:39;;;;;;;1.07;0.90;;;;;;;14.85;100.00;98650.47;5011552;27;103264;-67
2021/08/29 08:43:22;;;;;;;1.10;1.00;;;;;;;14.75;100.00;98652.25;4994199;28;102795;-67
2021/08/29 08:46:11;;;;;;;0.83;0.83;;;;;;;15.05;100.00;98655.63;5014356;28;102637;-68
2021/08/29 08:49:02;;;;;;;1.13;0.80;;;;;;;15.13;100.00;98651.44;5013504;28;104114;-69
2021/08/29 08:51:52;;;;;;;0.67;0.67;;;;;;;15.16;100.00;98651.97;5010270;28;103115;-67
2021/08/29 08:54:49;;;;;;;1.17;0.70;;;;;;;15.17;100.00;98648.34;5016597;28;102720;-68
2021/08/29 08:57:38;;;;;;;0.70;0.70;;;;;;;14.54;100.00;98651.53;5016103;28;102745;-68
2021/08/29 09:00:34;;;;;;;1.00;0.80;;;;;;;14.76;100.00;98645.97;4989976;28;103918;-68
2021/08/29 09:03:22;;;;;;;0.90;0.90;;;;;;;14.82;100.00;98645.41;5001436;28;103130;-65
2021/08/29 09:06:09;;;;;;;1.03;0.93;;;;;;;15.02;100.00;98649.75;4992767;28;103090;-67
2021/08/29 09:08:38;;;;;;;0.80;0.70;;;;;;;15.18;100.00;98647.38;4993182;28;103245;-67
2021/08/29 09:11:07;;;;;;;0.67;0.63;;;;;;;15.18;100.00;98646.53;5006640;28;103269;-67
2021/08/29 09:13:56;;;;;;;1.23;0.73;;;;;;;15.13;100.00;98652.25;4995241;28;104519;-67
2021/08/29 09:16:27;;;;;;;0.87;0.80;;;;;;;15.19;100.00;98650.84;4996231;28;102681;-66
2021/08/29 09:18:59;;;;;;;1.77;0.90;;;;;;;15.13;100.00;98646.94;4995388;28;102998;-67
2021/08/29 09:21:30;;;;;;;1.03;0.97;;;;;;;15.02;100.00;98655.91;4997847;28;104331;-59
2021/08/29 09:24:10;;;;;;;0.97;0.80;;;;;;;15.32;100.00;98662.06;4996444;28;103260;-59
2021/08/29 09:27:01;;;;;;;0.77;0.67;;;;;;;15.66;100.00;98658.00;4989085;28;103260;-59
2021/08/29 09:29:43;;;;;;;1.27;1.17;;;;;;;15.45;100.00;98651.97;4992420;28;102719;-68
2021/08/29 09:32:18;;;;;;;0.67;0.67;;;;;;;15.52;100.00;98651.28;4997801;28;104034;-66
2021/08/29 09:35:02;;;;;;;0.70;0.70;;;;;;;15.30;100.00;98654.22;4992997;28;103273;-66
2021/08/29 09:37:51;;;;;;;0.60;0.60;;;;;;;15.46;100.00;98654.53;5013272;28;102665;-68
2021/08/29 09:40:39;;;;;;;0.53;0.53;;;;;;;15.51;100.00;98649.63;4991955;28;102836;-59
2021/08/29 09:43:14;;;;;;;1.10;0.60;;;;;;;15.77;100.00;98654.31;5010282;28;103323;-59
2021/08/29 09:45:46;;;;;;;1.77;0.70;;;;;;;15.68;100.00;98649.84;4994357;28;103541;-59
2021/08/29 09:48:33;;;;;;;0.80;0.57;;;;;;;15.78;100.00;98650.66;5012781;28;102825;-60
2021/08/29 09:51:24;;;;;;;0.63;0.60;;;;;;;15.70;100.00;98658.53;4990481;28;102671;-59
2021/08/29 09:54:08;;;;;;;0.85;0.70;;;;;;;15.49;100.00;98645.41;4989134;28;103470;-59
2021/08/29 09:56:53;;;;;;;0.50;0.50;;;;;;;15.65;100.00;98649.16;4997209;28;105864;-59
2021/08/29 09:59:41;;;;;;;0.70;0.70;;;;;;;15.78;100.00;98645.34;4990381;28;102850;-68
2021/08/29 10:02:29;;;;;;;0.50;0.50;;;;;;;15.95;100.00;98657.91;5007889;28;104075;-59
2021/08/29 10:05:13;;;;;;;0.40;0.40;;;;;;;15.66;100.00;98642.84;4984153;28;105832;-66
2021/08/29 10:08:04;;;;;;;0.53;0.53;;;;;;;15.82;100.00;98649.41;4984790;28;103603;-67
2021/08/29 10:10:40;;;;;;;0.70;0.70;;;;;;;16.16;100.00;98642.53;4990374;28;102695;-67
2021/08/29 10:13:12;;;;;;;0.80;0.70;;;;;;;16.19;100.00;98639.59;4995350;28;102806;-59
2021/08/29 10:15:45;;;;;;;0.50;0.50;;;;;;;16.55;100.00;98640.53;4994106;28;103343;-68
2021/08/29 10:18:38;;;;;;;1.00;0.87;;;;;;;16.91;100.00;98642.25;4965182;28;103212;-67
2021/08/29 10:21:34;;;;;;;0.97;0.70;;;;;;;16.73;100.00;98631.56;5013761;28;102792;-59
2021/08/29 10:24:06;;;;;;;0.73;0.73;;;;;;;16.59;100.00;98637.41;4987742;28;102833;-59
2021/08/29 10:26:38;;;;;;;1.10;1.00;;;;;;;16.25;100.00;98636.34;4987939;28;104273;-69
2021/08/29 10:29:29;;;;;;;1.67;1.10;;;;;;;15.99;100.00;98641.50;5010364;28;103135;-68
2021/08/29 10:32:19;;;;;;;1.80;1.70;;;;;;;16.19;100.00;98639.59;5012866;28;102693;-68
2021/08/29 10:35:08;;;;;;;2.23;2.13;;;;;;;16.26;100.00;98635.34;5013253;28;102807;-68
2021/08/29 10:37:40;;;;;;;3.10;2.90;;;;;;;16.23;100.00;98638.28;4982701;28;103370;-68
2021/08/29 10:40:28;;;;;;;3.60;3.30;;;;;;;16.31;100.00;98646.38;5014187;28;103322;-68
2021/08/29 10:43:19;;;;;;;3.85;3.53;;;;;;;16.49;100.00;98644.63;5012135;28;102813;-69
2021/08/29 10:46:08;;;;;;;3.72;3.42;;;;;;;16.41;100.00;98638.34;5011281;28;103146;-60
2021/08/29 10:49:01;;;;;;;3.53;3.22;;;;;;;16.51;100.00;98634.63;4990700;28;103309;-67
2021/08/29 10:51:36;;;;;;;3.50;3.30;;;;;;;16.50;100.00;98635.63;4993605;28;103293;-70
2021/08/29 10:54:11;;;;;;;3.78;3.53;;;;;;;16.57;100.00;98639.41;4993624;28;103084;-69
2021/08/29 10:56:41;;;;;;;3.60;3.40;;;;;;;16.58;100.00;98646.44;4997740;28;103010;-70
2021/08/29 10:59:36;;;;;;;3.78;3.20;;;;;;;16.61;100.00;98635.47;4963547;28;104039;-68
2021/08/29 11:02:13;;;;;;;2.97;2.78;;;;;;;16.56;100.00;98632.38;4962580;28;104280;-68
2021/08/29 11:05:01;;;;;;;3.78;3.17;;;;;;;16.46;100.00;98639.56;4993213;28;102816;-69
2021/08/29 11:07:50;;;;;;;4.78;3.40;;;;;;;16.84;100.00;98635.03;4976911;28;103998;-68
2021/08/29 11:10:42;;;;;;;3.65;3.35;;;;;;;16.92;100.00;98630.59;4977923;28;103448;-69
2021/08/29 11:13:34;;;;;;;2.20;2.00;;;;;;;16.88;100.00;98634.56;4962483;28;105358;-68
2021/08/29 11:16:24;;;;;;;2.70;2.33;;;;;;;16.97;99.29;98630.97;4966431;28;103237;-68
2021/08/29 11:19:16;;;;;;;3.92;3.55;;;;;;;16.72;100.00;98640.59;4992605;28;103154;-68
2021/08/29 11:22:16;;;;;;;3.78;2.83;;;;;;;16.59;100.00;98637.41;4968513;28;104256;-66
2021/08/29 11:25:06;;;;;;;2.67;2.47;;;;;;;16.87;100.00;98635.53;4993538;28;103359;-67
2021/08/29 11:27:58;;;;;;;3.67;3.38;;;;;;;16.75;100.00;98637.63;4991476;28;102771;-67
2021/08/29 11:30:47;;;;;;;3.10;2.90;;;;;;;16.82;99.95;98637.81;4995401;28;103225;-67
2021/08/29 11:33:40;;;;;;;3.33;2.70;;;;;;;17.44;98.73;98630.69;4956959;28;106032;-67
2021/08/29 11:36:31;;;;;;;2.88;2.67;;;;;;;17.68;97.22;98630.94;4969243;28;103266;-67
2021/08/29 11:38:59;;;;;;;3.40;3.10;;;;;;;17.65;95.69;98626.75;4986492;28;104208;-66
2021/08/29 11:41:28;;;;;;;3.15;2.95;;;;;;;17.71;95.65;98626.09;4997136;28;102735;-67
2021/08/29 11:43:57;;;;;;;2.78;2.58;;;;;;;17.67;94.97;98631.91;4975187;28;105592;-67
2021/08/29 11:46:39;;;;;;;2.80;2.60;;;;;;;17.53;94.37;98633.28;4978316;28;105434;-67
2021/08/29 11:49:18;;;;;;;4.43;3.40;;;;;;;17.16;95.51;98636.16;4997000;28;103054;-67
2021/08/29 11:51:52;;;;;;;4.68;3.58;;;;;;;16.90;98.06;98629.09;4993841;28;102927;-68
2021/08/29 11:54:26;;;;;;;3.30;3.00;;;;;;;16.97;98.35;98635.47;4948712;28;104564;-58
2021/08/29 11:57:01;;;;;;;2.38;2.17;;;;;;;17.48;97.43;98638.25;4976817;28;103375;-59
2021/08/29 11:59:31;;;;;;;2.60;2.40;;;;;;;17.08;96.15;98632.56;4974022;28;102766;-60
2021/08/29 12:02:09;;;;;;;2.33;2.05;;;;;;;16.74;96.00;98637.75;4964805;28;102704;-60
2021/08/29 12:04:53;;;;;;;2.20;2.00;;;;;;;16.76;98.19;98638.44;4965956;28;103105;-60
2021/08/29 12:07:47;;;;;;;2.08;1.83;;;;;;;16.93;97.80;98640.28;4995347;28;103224;-60
2021/08/29 12:10:34;;;;;;;2.75;2.55;;;;;;;16.45;96.72;98645.06;4987945;28;102661;-59
2021/08/29 12:13:30;;;;;;;2.47;2.28;;;;;;;16.68;99.21;98641.00;4961345;28;103006;-60
2021/08/29 12:16:30;;;;;;;2.63;2.42;;;;;;;17.21;96.90;98635.69;4947629;28;109310;-60
2021/08/29 12:19:12;;;;;;;2.40;2.20;;;;;;;17.06;97.91;98634.56;4975192;28;103256;-60
2021/08/29 12:22:01;;;;;;;2.47;2.28;;;;;;;16.83;97.80;98638.66;4995263;28;102625;-60
2021/08/29 12:24:49;;;;;;;2.60;2.40;;;;;;;17.05;96.33;98643.56;4979137;28;102730;-59
2021/08/29 12:27:18;;;;;;;3.05;2.75;;;;;;;16.95;96.66;98634.81;4978023;28;104223;-60
2021/08/29 12:29:50;;;;;;;2.72;2.53;;;;;;;16.65;96.86;98641.31;4997236;28;104128;-69
2021/08/29 12:32:20;;;;;;;2.65;2.45;;;;;;;16.96;95.96;98633.78;4997298;28;104052;-70
2021/08/29 12:34:52;;;;;;;2.95;2.40;;;;;;;16.91;98.46;98628.91;4982001;28;103235;-67
2021/08/29 12:37:23;;;;;;;2.17;1.98;;;;;;;17.19;97.56;98635.00;4959568;28;103164;-67
2021/08/29 12:39:59;;;;;;;3.50;3.20;;;;;;;16.49;98.22;98639.28;4970841;28;103232;-67
2021/08/29 12:42:34;;;;;;;3.67;3.38;;;;;;;16.41;99.13;98644.53;4977944;28;102734;-68
2021/08/29 12:45:16;;;;;;;3.88;3.58;;;;;;;16.41;100.00;98636.53;4978820;28;103111;-68
2021/08/29 12:47:46;;;;;;;4.00;3.70;;;;;;;16.16;100.00;98640.72;4989968;28;103227;-67
2021/08/29 12:50:18;;;;;;;4.35;3.45;;;;;;;16.26;100.00;98638.00;4979717;28;103269;-68
2021/08/29 12:52:50;;;;;;;3.72;3.40;;;;;;;16.19;100.00;98642.25;5001950;28;102672;-68
2021/08/29 12:55:20;;;;;;;3.65;3.35;;;;;;;16.50;100.00;98640.97;5013143;28;104054;-68
2021/08/29 12:57:55;;;;;;;4.25;3.85;;;;;;;16.33;100.00;98643.59;5014690;28;104174;-68
2021/08/29 13:00:23;;;;;;;4.43;4.03;;;;;;;16.24;100.00;98642.66;5006778;28;103182;-68
2021/08/29 13:02:52;;;;;;;5.55;3.38;;;;;;;16.43;100.00;98637.22;5010145;28;103174;-67
2021/08/29 13:05:20;;;;;;;4.28;3.67;;;;;;;16.26;100.00;98635.34;4992567;28;104531;-68
2021/08/29 13:07:52;;;;;;;4.45;4.05;;;;;;;16.31;100.00;98646.38;5003814;28;103501;-67
2021/08/29 13:10:22;;;;;;;3.70;3.40;;;;;;;16.51;100.00;98650.63;5011159;28;103196;-68
2021/08/29 13:13:05;;;;;;;4.88;4.30;;;;;;;16.57;100.00;98643.91;5010612;28;102644;-68
2021/08/29 13:15:34;;;;;;;4.10;3.70;;;;;;;16.85;100.00;98642.03;5008075;28;102696;-68
2021/08/29 13:18:02;;;;;;;3.42;3.22;;;;;;;16.81;100.00;98642.31;4990424;28;103165;-69
2021/08/29 13:20:38;;;;;;;4.13;3.75;;;;;;;16.78;100.00;98642.66;5010764;28;103156;-68
2021/08/29 13:23:23;;;;;;;6.07;5.57;;;;;;;16.32;100.00;98640.06;5008147;28;102690;-66
2021/08/29 13:25:53;;;;;;;6.75;6.15;;;;;;;16.22;100.00;98648.09;5008840;27;102898;-68
2021/08/29 13:28:22;;;;;;;4.97;4.57;;;;;;;16.06;100.00;98645.25;5011105;28;103134;-68
2021/08/29 13:31:00;;;;;;;5.28;4.88;;;;;;;16.14;100.00;98640.00;5010912;28;103237;-68
2021/08/29 13:33:29;;;;;;;6.25;5.70;;;;;;;16.36;100.00;98635.28;4989538;28;102658;-68
2021/08/29 13:36:02;;;;;;;5.63;5.13;;;;;;;16.42;100.00;98634.72;4985117;28;103264;-67
2021/08/29 13:38:33;;;;;;;3.80;3.50;;;;;;;16.59;100.00;98641.94;5003076;28;104022;-67
2021/08/29 13:41:03;;;;;;;4.85;4.45;;;;;;;16.37;100.00;98637.78;4988061;28;103203;-67
2021/08/29 13:43:33;;;;;;;5.63;5.13;;;;;;;16.54;100.00;98638.84;5007252;28;102639;-67
2021/08/29 13:46:03;;;;;;;4.45;4.05;;;;;;;16.36;100.00;98646.81;4986747;28;102844;-68
2021/08/29 13:48:32;;;;;;;4.45;4.05;;;;;;;16.37;100.00;98643.13;4993735;28;103119;-68
2021/08/29 13:51:00;;;;;;;4.47;4.13;;;;;;;16.74;100.00;98635.09;5005961;28;103253;-68
2021/08/29 13:53:30;;;;;;;4.57;4.28;;;;;;;16.33;100.00;98644.44;5004659;28;102795;-68
2021/08/29 13:56:01;;;;;;;3.80;3.50;;;;;;;16.51;100.00;98639.97;5005035;28;102936;-69
2021/08/29 13:58:29;;;;;;;3.67;3.38;;;;;;;16.87;100.00;98640.06;4998461;28;103381;-67
2021/08/29 14:00:58;;;;;;;4.25;3.95;;;;;;;16.62;100.00;98638.94;4999770;28;103347;-67
2021/08/29 14:03:28;;;;;;;5.03;4.53;;;;;;;16.80;100.00;98639.81;5000197;28;102982;-68
2021/08/29 14:05:56;;;;;;;5.25;4.85;;;;;;;16.61;100.00;98638.13;5007423;28;102715;-69
2021/08/29 14:08:24;;;;;;;4.72;4.35;;;;;;;16.76;100.00;98644.59;4950242;28;103433;-66
2021/08/29 14:10:56;;;;;;;5.25;4.85;;;;;;;16.61;100.00;98634.63;5005810;28;103212;-68
2021/08/29 14:13:25;;;;;;;4.93;4.50;;;;;;;16.60;100.00;98633.78;5013084;28;103278;-68
2021/08/29 14:15:54;;;;;;;4.30;4.00;;;;;;;16.53;100.00;98634.50;5009147;28;102734;-68
2021/08/29 14:18:22;;;;;;;4.57;4.13;;;;;;;16.54;100.00;98638.84;5012718;28;103357;-69
2021/08/29 14:20:50;;;;;;;4.03;3.72;;;;;;;16.65;100.00;98638.66;4987316;28;103230;-59
2021/08/29 14:23:19;;;;;;;4.07;3.40;;;;;;;16.81;100.00;98636.97;5008809;28;103309;-60
2021/08/29 14:25:47;;;;;;;4.47;4.13;;;;;;;16.53;100.00;98632.69;5009435;28;102829;-60
2021/08/29 14:28:15;;;;;;;3.65;3.35;;;;;;;16.29;100.00;98632.38;5001126;28;103496;-58
2021/08/29 14:30:45;;;;;;;4.07;3.78;;;;;;;16.42;100.00;98629.38;5006210;28;103906;-59
2021/08/29 14:33:13;;;;;;;4.22;3.88;;;;;;;16.53;100.00;98629.16;5010954;28;102673;-59
2021/08/29 14:35:42;;;;;;;4.45;3.90;;;;;;;16.37;100.00;98637.78;5012891;28;102682;-67
2021/08/29 14:38:10;;;;;;;4.18;3.88;;;;;;;16.18;100.00;98622.75;5009938;27;103429;-70
2021/08/29 14:40:38;;;;;;;9.85;5.28;;;;;;;16.10;100.00;98629.81;5012916;28;103187;-59
2021/08/29 14:43:07;;;;;;;4.05;3.75;;;;;;;16.15;100.00;98633.72;4992128;28;102758;-59
2021/08/29 14:45:35;;;;;;;4.80;4.40;;;;;;;16.38;100.00;98641.31;5012037;28;104052;-59
2021/08/29 14:48:06;;;;;;;4.40;4.00;;;;;;;16.20;100.00;98638.59;5011231;28;103098;-67
2021/08/29 14:50:34;;;;;;;4.88;4.38;;;;;;;16.10;100.00;98632.47;4992617;28;104183;-68
2021/08/29 14:53:11;;;;;;;4.53;4.13;;;;;;;16.03;100.00;98628.69;4988547;28;102894;-68
2021/08/29 14:55:39;;;;;;;4.22;3.92;;;;;;;16.10;100.00;98641.31;5008749;28;104529;-68
2021/08/29 14:58:07;;;;;;;4.15;3.85;;;;;;;16.00;100.00;98634.34;5008424;28;103345;-68
2021/08/29 15:00:36;;;;;;;4.47;4.05;;;;;;;15.88;100.00;98630.19;5009129;28;103225;-68
2021/08/29 15:03:06;;;;;;;4.07;3.78;;;;;;;15.85;100.00;98636.63;4992522;28;103170;-59
2021/08/29 15:05:36;;;;;;;4.70;4.30;;;;;;;15.89;100.00;98634.50;5009132;28;102736;-59
2021/08/29 15:08:05;;;;;;;4.10;3.80;;;;;;;16.15;100.00;98632.88;5009804;28;103299;-67
2021/08/29 15:10:33;;;;;;;4.50;4.03;;;;;;;16.35;100.00;98634.44;5010447;28;103246;-68
2021/08/29 15:13:01;;;;;;;4.88;4.38;;;;;;;16.18;100.00;98635.22;5006599;28;102737;-68
2021/08/29 15:15:29;;;;;;;3.90;3.50;;;;;;;16.13;100.00;98635.69;5006847;28;102676;-68
2021/08/29 15:17:58;;;;;;;4.78;4.38;;;;;;;16.35;100.00;98639.78;5009212;28;103349;-68
2021/08/29 15:20:28;;;;;;;3.92;3.63;;;;;;;16.45;100.00;98629.88;5010355;28;103295;-67
2021/08/29 15:22:56;;;;;;;3.60;3.30;;;;;;;16.12;100.00;98627.81;5007094;28;102848;-58
2021/08/29 15:25:25;;;;;;;2.70;2.50;;;;;;;16.20;100.00;98630.59;5000775;28;103909;-58
2021/08/29 15:27:53;;;;;;;3.50;3.20;;;;;;;16.03;100.00;98634.03;4987450;28;103305;-58
2021/08/29 15:30:21;;;;;;;4.45;3.65;;;;;;;15.73;100.00;98631.63;5001382;28;104191;-58
2021/08/29 15:32:49;;;;;;;3.10;2.80;;;;;;;15.95;100.00;98633.91;5011313;28;102734;-59
2021/08/29 15:35:18;;;;;;;3.97;3.58;;;;;;;16.07;100.00;98630.09;5008773;28;102847;-59
2021/08/29 15:37:49;;;;;;;4.05;3.75;;;;;;;15.71;100.00;98633.59;5005141;28;102807;-59
2021/08/29 15:40:17;;;;;;;3.85;3.47;;;;;;;15.71;100.00;98634.44;5010550;28;103244;-58
2021/08/29 15:42:46;;;;;;;2.95;2.75;;;;;;;15.87;100.00;98640.00;5010714;28;102639;-65
2021/08/29 15:45:14;;;;;;;3.35;3.03;;;;;;;15.78;100.00;98637.34;5011808;28;102946;-64
2021/08/29 15:47:42;;;;;;;4.18;3.88;;;;;;;16.01;100.00;98641.34;5007610;28;103994;-65
2021/08/29 15:50:11;;;;;;;4.80;4.30;;;;;;;15.84;100.00;98639.44;5011820;28;103155;-59
2021/08/29 15:52:42;;;;;;;3.75;3.45;;;;;;;15.96;100.00;98632.94;5009058;28;102646;-60
2021/08/29 15:55:17;;;;;;;3.90;3.60;;;;;;;15.92;100.00;98634.22;5010630;28;102689;-59
2021/08/29 15:57:47;;;;;;;4.72;4.32;;;;;;;15.96;100.00;98631.13;5008387;28;103681;-58
2021/08/29 16:00:16;;;;;;;5.53;4.90;;;;;;;15.99;100.00;98630.00;5011656;28;103016;-59
2021/08/29 16:02:45;;;;;;;6.50;6.00;;;;;;;15.91;100.00;98635.22;5007420;28;102666;-59
2021/08/29 16:05:14;;;;;;;5.60;5.20;;;;;;;15.90;100.00;98628.19;5007546;28;102722;-59
2021/08/29 16:07:42;;;;;;;6.13;5.63;;;;;;;15.89;100.00;98623.84;5007592;28;103360;-59
2021/08/29 16:10:12;;;;;;;6.30;5.50;;;;;;;16.02;100.00;98627.03;5012103;28;103004;-59
2021/08/29 16:12:42;;;;;;;6.43;5.82;;;;;;;16.10;100.00;98630.66;5009961;28;102896;-58
2021/08/29 16:15:13;;;;;;;7.50;6.85;;;;;;;15.87;100.00;98625.81;5008625;28;102933;-59
2021/08/29 16:17:41;;;;;;;6.82;6.22;;;;;;;15.92;100.00;98627.06;5008050;28;103304;-58
2021/08/29 16:20:11;;;;;;;6.35;5.85;;;;;;;16.00;100.00;98629.84;5011718;28;103187;-58
2021/08/29 16:22:40;;;;;;;7.72;7.03;;;;;;;15.85;100.00;98635.78;5006282;28;102671;-58
2021/08/29 16:25:08;;;;;;;7.47;6.27;;;;;;;15.85;100.00;98625.13;5009073;28;102663;-58
2021/08/29 16:27:38;;;;;;;7.60;6.78;;;;;;;15.92;100.00;98623.56;4989440;28;103374;-59
2021/08/29 16:30:09;;;;;;;7.80;7.05;;;;;;;15.89;100.00;98618.50;5012041;28;103014;-59
2021/08/29 16:32:37;;;;;;;7.90;7.20;;;;;;;15.86;100.00;98619.66;5010045;28;102742;-58
2021/08/29 16:35:08;;;;;;;7.30;6.68;;;;;;;15.80;100.00;98619.41;4990653;28;103630;-59
2021/08/29 16:37:36;;;;;;;7.53;6.82;;;;;;;15.86;100.00;98626.81;5011924;28;103355;-59
2021/08/29 16:40:06;;;;;;;6.93;6.38;;;;;;;15.88;100.00;98624.84;5008188;28;103248;-58
2021/08/29 16:42:35;;;;;;;7.60;6.65;;;;;;;15.85;100.00;98625.97;5005982;28;102686;-58
2021/08/29 16:45:06;;;;;;;7.28;6.68;;;;;;;15.86;100.00;98621.50;4989971;28;102799;-59
2021/08/29 16:47:35;;;;;;;6.45;5.85;;;;;;;15.85;100.00;98619.81;5010038;28;103369;-59
2021/08/29 16:50:03;;;;;;;8.35;7.55;;;;;;;15.72;100.00;98624.63;5012639;28;103095;-59
2021/08/29 16:52:31;;;;;;;6.93;5.90;;;;;;;15.69;100.00;98624.91;5008635;28;103024;-58
2021/08/29 16:54:59;;;;;;;7.88;7.10;;;;;;;15.76;100.00;98612.69;4990099;28;102736;-58
2021/08/29 16:57:27;;;;;;;6.95;6.35;;;;;;;15.73;100.00;98621.81;5008778;28;103963;-58
2021/08/29 16:59:59;;;;;;;10.07;9.07;;;;;;;15.75;100.00;98619.00;5007047;28;103327;-58